sensor_id;sensor_type;location;lat;lon;timestamp;P1;durP1;ratioP1;P2;durP2;ratioP2
6973;SDS011;3527;52.376;8.990;2022-11-20T00:00:54;33.57;;;20.13;;
6973;SDS011;3527;52.376;8.990;2022-11-20T00:03:42;32.90;;;19.80;;
6973;SDS011;3527;52.376;8.990;2022-11-20T00:06:29;28.43;;;19.03;;
6973;SDS011;3527;52.376;8.990;2022-11-20T00:09:16;30.90;;;19.47;;
6973;SDS011;3527;52.376;8.990;2022-11-20T00:12:04;33.33;;;19.53;;
6973;SDS011;3527;52.376;8.990;2022-11-20T00:14:51;31.87;;;19.10;;
6973;SDS011;3527;52.376;8.990;2022-11-20T00:17:38;29.93;;;19.27;;
6973;SDS011;3527;52.376;8.990;2022-11-20T00:20:25;34.07;;;19.33;;
6973;SDS011;3527;52.376;8.990;2022-11-20T00:23:12;30.13;;;18.67;;
6973;SDS011;3527;52.376;8.990;2022-11-20T00:26:03;28.93;;;18.80;;
6973;SDS011;3527;52.376;8.990;2022-11-20T00:28:51;31.07;;;19.20;;
6973;SDS011;3527;52.376;8.990;2022-11-20T00:31:40;26.67;;;16.90;;
6973;SDS011;3527;52.376;8.990;2022-11-20T00:34:27;28.17;;;17.37;;
6973;SDS011;3527;52.376;8.990;2022-11-20T00:37:14;29.90;;;17.97;;
6973;SDS011;3527;52.376;8.990;2022-11-20T00:40:01;30.27;;;18.43;;
6973;SDS011;3527;52.376;8.990;2022-11-20T00:42:49;28.80;;;17.33;;
6973;SDS011;3527;52.376;8.990;2022-11-20T00:45:36;27.87;;;18.43;;
6973;SDS011;3527;52.376;8.990;2022-11-20T00:48:23;32.23;;;18.20;;
6973;SDS011;3527;52.376;8.990;2022-11-20T00:51:11;25.97;;;17.70;;
6973;SDS011;3527;52.376;8.990;2022-11-20T00:53:59;31.00;;;17.83;;
6973;SDS011;3527;52.376;8.990;2022-11-20T00:56:48;28.67;;;18.13;;
6973;SDS011;3527;52.376;8.990;2022-11-20T00:59:35;29.10;;;18.53;;
6973;SDS011;3527;52.376;8.990;2022-11-20T01:02:22;31.17;;;17.60;;
6973;SDS011;3527;52.376;8.990;2022-11-20T01:05:09;29.67;;;18.43;;
6973;SDS011;3527;52.376;8.990;2022-11-20T01:07:56;33.10;;;18.60;;
6973;SDS011;3527;52.376;8.990;2022-11-20T01:10:43;30.57;;;18.23;;
6973;SDS011;3527;52.376;8.990;2022-11-20T01:13:30;29.37;;;17.97;;
6973;SDS011;3527;52.376;8.990;2022-11-20T01:16:31;31.33;;;18.80;;
6973;SDS011;3527;52.376;8.990;2022-11-20T01:19:23;31.00;;;17.53;;
6973;SDS011;3527;52.376;8.990;2022-11-20T01:22:11;30.20;;;17.57;;
6973;SDS011;3527;52.376;8.990;2022-11-20T01:24:58;31.43;;;19.47;;
6973;SDS011;3527;52.376;8.990;2022-11-20T01:27:45;31.00;;;18.97;;
6973;SDS011;3527;52.376;8.990;2022-11-20T01:30:31;31.73;;;19.40;;
6973;SDS011;3527;52.376;8.990;2022-11-20T01:33:18;29.97;;;18.77;;
6973;SDS011;3527;52.376;8.990;2022-11-20T01:36:05;31.43;;;18.60;;
6973;SDS011;3527;52.376;8.990;2022-11-20T01:39:00;30.33;;;19.60;;
6973;SDS011;3527;52.376;8.990;2022-11-20T01:41:50;29.13;;;18.07;;
6973;SDS011;3527;52.376;8.990;2022-11-20T01:44:59;29.23;;;18.27;;
6973;SDS011;3527;52.376;8.990;2022-11-20T01:47:47;27.83;;;18.53;;
6973;SDS011;3527;52.376;8.990;2022-11-20T01:50:36;32.60;;;19.07;;
6973;SDS011;3527;52.376;8.990;2022-11-20T01:53:24;27.70;;;17.77;;
6973;SDS011;3527;52.376;8.990;2022-11-20T01:56:15;32.30;;;18.27;;
6973;SDS011;3527;52.376;8.990;2022-11-20T01:59:03;33.57;;;17.93;;
6973;SDS011;3527;52.376;8.990;2022-11-20T02:01:53;32.37;;;19.07;;
6973;SDS011;3527;52.376;8.990;2022-11-20T02:04:41;28.63;;;17.67;;
6973;SDS011;3527;52.376;8.990;2022-11-20T02:07:28;30.23;;;17.73;;
6973;SDS011;3527;52.376;8.990;2022-11-20T02:10:15;33.70;;;18.53;;
6973;SDS011;3527;52.376;8.990;2022-11-20T02:13:03;30.07;;;18.47;;
6973;SDS011;3527;52.376;8.990;2022-11-20T02:19:06;31.37;;;18.10;;
6973;SDS011;3527;52.376;8.990;2022-11-20T02:24:59;32.00;;;19.47;;
6973;SDS011;3527;52.376;8.990;2022-11-20T02:27:48;29.10;;;17.70;;
6973;SDS011;3527;52.376;8.990;2022-11-20T02:30:36;30.57;;;17.33;;
6973;SDS011;3527;52.376;8.990;2022-11-20T02:33:23;27.97;;;15.90;;
6973;SDS011;3527;52.376;8.990;2022-11-20T02:36:11;25.37;;;15.90;;
6973;SDS011;3527;52.376;8.990;2022-11-20T02:39:01;29.63;;;16.17;;
6973;SDS011;3527;52.376;8.990;2022-11-20T02:41:50;25.77;;;15.77;;
6973;SDS011;3527;52.376;8.990;2022-11-20T02:44:40;27.80;;;16.27;;
6973;SDS011;3527;52.376;8.990;2022-11-20T02:47:27;26.43;;;15.87;;
6973;SDS011;3527;52.376;8.990;2022-11-20T02:50:14;26.40;;;15.90;;
6973;SDS011;3527;52.376;8.990;2022-11-20T02:53:01;27.30;;;16.30;;
6973;SDS011;3527;52.376;8.990;2022-11-20T02:55:48;23.57;;;15.47;;
6973;SDS011;3527;52.376;8.990;2022-11-20T02:58:35;27.17;;;15.87;;
6973;SDS011;3527;52.376;8.990;2022-11-20T03:01:22;28.03;;;15.87;;
6973;SDS011;3527;52.376;8.990;2022-11-20T03:04:09;24.10;;;14.97;;
6973;SDS011;3527;52.376;8.990;2022-11-20T03:06:56;25.23;;;15.40;;
6973;SDS011;3527;52.376;8.990;2022-11-20T03:09:43;26.23;;;15.77;;
6973;SDS011;3527;52.376;8.990;2022-11-20T03:12:30;23.37;;;14.37;;
6973;SDS011;3527;52.376;8.990;2022-11-20T03:15:17;26.73;;;15.53;;
6973;SDS011;3527;52.376;8.990;2022-11-20T03:18:04;25.00;;;14.77;;
6973;SDS011;3527;52.376;8.990;2022-11-20T03:20:56;26.13;;;15.40;;
6973;SDS011;3527;52.376;8.990;2022-11-20T03:23:45;25.90;;;16.43;;
6973;SDS011;3527;52.376;8.990;2022-11-20T03:26:32;25.13;;;15.13;;
6973;SDS011;3527;52.376;8.990;2022-11-20T03:29:19;24.63;;;15.63;;
6973;SDS011;3527;52.376;8.990;2022-11-20T03:32:07;24.10;;;15.67;;
6973;SDS011;3527;52.376;8.990;2022-11-20T03:34:54;28.07;;;16.40;;
6973;SDS011;3527;52.376;8.990;2022-11-20T03:37:41;27.30;;;16.17;;
6973;SDS011;3527;52.376;8.990;2022-11-20T03:40:28;26.83;;;16.73;;
6973;SDS011;3527;52.376;8.990;2022-11-20T03:43:15;24.63;;;14.73;;
6973;SDS011;3527;52.376;8.990;2022-11-20T03:46:02;26.40;;;15.87;;
6973;SDS011;3527;52.376;8.990;2022-11-20T03:48:50;26.47;;;15.90;;
6973;SDS011;3527;52.376;8.990;2022-11-20T03:51:37;29.37;;;16.50;;
6973;SDS011;3527;52.376;8.990;2022-11-20T03:54:25;24.07;;;14.73;;
6973;SDS011;3527;52.376;8.990;2022-11-20T03:57:11;28.23;;;15.60;;
6973;SDS011;3527;52.376;8.990;2022-11-20T03:59:59;25.03;;;15.57;;
6973;SDS011;3527;52.376;8.990;2022-11-20T04:02:46;26.73;;;15.63;;
6973;SDS011;3527;52.376;8.990;2022-11-20T04:05:33;30.20;;;16.87;;
6973;SDS011;3527;52.376;8.990;2022-11-20T04:08:20;27.30;;;16.43;;
6973;SDS011;3527;52.376;8.990;2022-11-20T04:11:17;25.40;;;16.80;;
6973;SDS011;3527;52.376;8.990;2022-11-20T04:14:06;25.00;;;16.40;;
6973;SDS011;3527;52.376;8.990;2022-11-20T04:17:00;24.60;;;15.50;;
6973;SDS011;3527;52.376;8.990;2022-11-20T04:19:47;25.93;;;15.93;;
6973;SDS011;3527;52.376;8.990;2022-11-20T04:22:34;27.90;;;15.63;;
6973;SDS011;3527;52.376;8.990;2022-11-20T04:25:21;27.10;;;16.27;;
6973;SDS011;3527;52.376;8.990;2022-11-20T04:28:08;27.43;;;16.07;;
6973;SDS011;3527;52.376;8.990;2022-11-20T04:31:00;24.53;;;15.70;;
6973;SDS011;3527;52.376;8.990;2022-11-20T04:33:52;23.57;;;15.53;;
6973;SDS011;3527;52.376;8.990;2022-11-20T04:36:39;24.10;;;15.40;;
6973;SDS011;3527;52.376;8.990;2022-11-20T04:39:26;28.13;;;15.70;;
6973;SDS011;3527;52.376;8.990;2022-11-20T04:42:13;22.73;;;15.63;;
6973;SDS011;3527;52.376;8.990;2022-11-20T04:45:15;23.37;;;14.10;;
6973;SDS011;3527;52.376;8.990;2022-11-20T04:48:02;24.63;;;15.53;;
6973;SDS011;3527;52.376;8.990;2022-11-20T04:50:49;24.67;;;15.40;;
6973;SDS011;3527;52.376;8.990;2022-11-20T04:53:36;24.93;;;16.50;;
6973;SDS011;3527;52.376;8.990;2022-11-20T04:56:23;24.97;;;15.17;;
6973;SDS011;3527;52.376;8.990;2022-11-20T04:59:10;27.27;;;15.90;;
6973;SDS011;3527;52.376;8.990;2022-11-20T05:01:57;24.60;;;15.40;;
6973;SDS011;3527;52.376;8.990;2022-11-20T05:04:44;24.33;;;15.40;;
6973;SDS011;3527;52.376;8.990;2022-11-20T05:07:31;22.37;;;14.23;;
6973;SDS011;3527;52.376;8.990;2022-11-20T05:10:18;24.20;;;15.07;;
6973;SDS011;3527;52.376;8.990;2022-11-20T05:13:05;23.87;;;14.60;;
6973;SDS011;3527;52.376;8.990;2022-11-20T05:15:52;23.20;;;14.50;;
6973;SDS011;3527;52.376;8.990;2022-11-20T05:18:39;24.00;;;15.97;;
6973;SDS011;3527;52.376;8.990;2022-11-20T05:21:29;22.67;;;14.40;;
6973;SDS011;3527;52.376;8.990;2022-11-20T05:24:17;24.00;;;15.23;;
6973;SDS011;3527;52.376;8.990;2022-11-20T05:27:04;25.70;;;15.60;;
6973;SDS011;3527;52.376;8.990;2022-11-20T05:29:51;24.90;;;14.90;;
6973;SDS011;3527;52.376;8.990;2022-11-20T05:32:38;24.80;;;16.37;;
6973;SDS011;3527;52.376;8.990;2022-11-20T05:35:25;26.13;;;15.70;;
6973;SDS011;3527;52.376;8.990;2022-11-20T05:38:12;25.97;;;16.17;;
6973;SDS011;3527;52.376;8.990;2022-11-20T05:41:05;25.03;;;15.97;;
6973;SDS011;3527;52.376;8.990;2022-11-20T05:43:55;23.60;;;15.33;;
6973;SDS011;3527;52.376;8.990;2022-11-20T05:46:43;24.63;;;15.77;;
6973;SDS011;3527;52.376;8.990;2022-11-20T05:49:30;23.53;;;14.37;;
6973;SDS011;3527;52.376;8.990;2022-11-20T05:52:17;21.30;;;13.97;;
6973;SDS011;3527;52.376;8.990;2022-11-20T05:55:04;22.80;;;14.67;;
6973;SDS011;3527;52.376;8.990;2022-11-20T05:57:52;20.33;;;14.43;;
6973;SDS011;3527;52.376;8.990;2022-11-20T06:00:40;24.67;;;14.77;;
6973;SDS011;3527;52.376;8.990;2022-11-20T06:03:27;24.93;;;15.90;;
6973;SDS011;3527;52.376;8.990;2022-11-20T06:06:14;21.37;;;13.73;;
6973;SDS011;3527;52.376;8.990;2022-11-20T06:09:02;20.80;;;13.10;;
6973;SDS011;3527;52.376;8.990;2022-11-20T06:11:49;22.27;;;13.80;;
6973;SDS011;3527;52.376;8.990;2022-11-20T06:14:36;22.63;;;13.17;;
6973;SDS011;3527;52.376;8.990;2022-11-20T06:17:23;20.33;;;13.03;;
6973;SDS011;3527;52.376;8.990;2022-11-20T06:20:10;21.33;;;12.87;;
6973;SDS011;3527;52.376;8.990;2022-11-20T06:22:57;19.33;;;12.23;;
6973;SDS011;3527;52.376;8.990;2022-11-20T06:25:44;21.07;;;12.50;;
6973;SDS011;3527;52.376;8.990;2022-11-20T06:28:31;19.80;;;12.57;;
6973;SDS011;3527;52.376;8.990;2022-11-20T06:31:21;19.30;;;12.57;;
6973;SDS011;3527;52.376;8.990;2022-11-20T06:34:10;24.00;;;13.33;;
6973;SDS011;3527;52.376;8.990;2022-11-20T06:36:57;23.17;;;12.17;;
6973;SDS011;3527;52.376;8.990;2022-11-20T06:39:44;20.93;;;12.80;;
6973;SDS011;3527;52.376;8.990;2022-11-20T06:42:31;22.47;;;13.03;;
6973;SDS011;3527;52.376;8.990;2022-11-20T06:45:18;18.33;;;11.70;;
6973;SDS011;3527;52.376;8.990;2022-11-20T06:48:05;22.73;;;13.10;;
6973;SDS011;3527;52.376;8.990;2022-11-20T06:50:52;19.47;;;12.67;;
6973;SDS011;3527;52.376;8.990;2022-11-20T06:53:40;18.33;;;12.20;;
6973;SDS011;3527;52.376;8.990;2022-11-20T06:56:27;18.57;;;12.03;;
6973;SDS011;3527;52.376;8.990;2022-11-20T06:59:14;18.27;;;11.63;;
6973;SDS011;3527;52.376;8.990;2022-11-20T07:02:01;19.37;;;12.17;;
6973;SDS011;3527;52.376;8.990;2022-11-20T07:04:48;19.70;;;12.43;;
6973;SDS011;3527;52.376;8.990;2022-11-20T07:07:35;19.60;;;11.70;;
6973;SDS011;3527;52.376;8.990;2022-11-20T07:10:23;18.73;;;12.50;;
6973;SDS011;3527;52.376;8.990;2022-11-20T07:13:10;20.87;;;12.27;;
6973;SDS011;3527;52.376;8.990;2022-11-20T07:16:04;22.63;;;13.27;;
6973;SDS011;3527;52.376;8.990;2022-11-20T07:18:53;20.80;;;12.53;;
6973;SDS011;3527;52.376;8.990;2022-11-20T07:21:40;21.13;;;13.30;;
6973;SDS011;3527;52.376;8.990;2022-11-20T07:24:27;21.73;;;13.33;;
6973;SDS011;3527;52.376;8.990;2022-11-20T07:27:14;20.43;;;12.93;;
6973;SDS011;3527;52.376;8.990;2022-11-20T07:30:02;19.23;;;12.10;;
6973;SDS011;3527;52.376;8.990;2022-11-20T07:32:51;20.13;;;12.53;;
6973;SDS011;3527;52.376;8.990;2022-11-20T07:35:39;20.57;;;13.37;;
6973;SDS011;3527;52.376;8.990;2022-11-20T07:38:26;19.80;;;13.47;;
6973;SDS011;3527;52.376;8.990;2022-11-20T07:41:13;21.53;;;13.40;;
6973;SDS011;3527;52.376;8.990;2022-11-20T07:44:01;19.17;;;12.70;;
6973;SDS011;3527;52.376;8.990;2022-11-20T07:46:48;20.00;;;12.37;;
6973;SDS011;3527;52.376;8.990;2022-11-20T07:49:35;22.83;;;12.50;;
6973;SDS011;3527;52.376;8.990;2022-11-20T07:52:22;18.10;;;11.90;;
6973;SDS011;3527;52.376;8.990;2022-11-20T07:55:09;19.23;;;11.93;;
6973;SDS011;3527;52.376;8.990;2022-11-20T07:57:56;20.53;;;13.17;;
6973;SDS011;3527;52.376;8.990;2022-11-20T08:00:44;20.27;;;13.83;;
6973;SDS011;3527;52.376;8.990;2022-11-20T08:03:31;21.87;;;13.43;;
6973;SDS011;3527;52.376;8.990;2022-11-20T08:06:21;21.77;;;12.77;;
6973;SDS011;3527;52.376;8.990;2022-11-20T08:09:08;21.90;;;13.70;;
6973;SDS011;3527;52.376;8.990;2022-11-20T08:11:56;18.90;;;13.13;;
6973;SDS011;3527;52.376;8.990;2022-11-20T08:15:02;19.67;;;12.60;;
6973;SDS011;3527;52.376;8.990;2022-11-20T08:18:04;19.27;;;13.57;;
6973;SDS011;3527;52.376;8.990;2022-11-20T08:21:12;20.80;;;12.60;;
6973;SDS011;3527;52.376;8.990;2022-11-20T08:23:59;19.77;;;12.83;;
6973;SDS011;3527;52.376;8.990;2022-11-20T08:26:46;21.17;;;13.50;;
6973;SDS011;3527;52.376;8.990;2022-11-20T08:29:33;20.33;;;14.03;;
6973;SDS011;3527;52.376;8.990;2022-11-20T08:32:20;19.73;;;13.50;;
6973;SDS011;3527;52.376;8.990;2022-11-20T08:35:07;20.30;;;13.47;;
6973;SDS011;3527;52.376;8.990;2022-11-20T08:37:54;23.47;;;13.73;;
6973;SDS011;3527;52.376;8.990;2022-11-20T08:40:41;22.00;;;12.77;;
6973;SDS011;3527;52.376;8.990;2022-11-20T08:43:49;20.73;;;12.57;;
6973;SDS011;3527;52.376;8.990;2022-11-20T08:46:38;22.53;;;13.03;;
6973;SDS011;3527;52.376;8.990;2022-11-20T08:49:27;18.13;;;12.80;;
6973;SDS011;3527;52.376;8.990;2022-11-20T08:52:14;20.30;;;12.73;;
6973;SDS011;3527;52.376;8.990;2022-11-20T08:55:01;20.40;;;13.97;;
6973;SDS011;3527;52.376;8.990;2022-11-20T08:57:49;18.53;;;12.20;;
6973;SDS011;3527;52.376;8.990;2022-11-20T09:00:36;21.60;;;13.07;;
6973;SDS011;3527;52.376;8.990;2022-11-20T09:03:23;18.83;;;12.77;;
6973;SDS011;3527;52.376;8.990;2022-11-20T09:06:18;20.33;;;12.80;;
6973;SDS011;3527;52.376;8.990;2022-11-20T09:09:06;18.23;;;12.73;;
6973;SDS011;3527;52.376;8.990;2022-11-20T09:11:53;17.53;;;11.67;;
6973;SDS011;3527;52.376;8.990;2022-11-20T09:14:40;16.83;;;11.97;;
6973;SDS011;3527;52.376;8.990;2022-11-20T09:17:27;21.87;;;12.30;;
6973;SDS011;3527;52.376;8.990;2022-11-20T09:20:14;16.47;;;11.70;;
6973;SDS011;3527;52.376;8.990;2022-11-20T09:23:01;19.63;;;11.67;;
6973;SDS011;3527;52.376;8.990;2022-11-20T09:25:48;16.03;;;11.03;;
6973;SDS011;3527;52.376;8.990;2022-11-20T09:28:35;18.33;;;12.00;;
6973;SDS011;3527;52.376;8.990;2022-11-20T09:31:23;17.43;;;11.13;;
6973;SDS011;3527;52.376;8.990;2022-11-20T09:34:12;17.37;;;11.47;;
6973;SDS011;3527;52.376;8.990;2022-11-20T09:36:59;14.60;;;10.80;;
6973;SDS011;3527;52.376;8.990;2022-11-20T09:39:52;19.33;;;12.27;;
6973;SDS011;3527;52.376;8.990;2022-11-20T09:55:30;17.47;;;11.13;;
6973;SDS011;3527;52.376;8.990;2022-11-20T10:01:22;17.70;;;11.43;;
6973;SDS011;3527;52.376;8.990;2022-11-20T10:04:15;16.47;;;11.13;;
6973;SDS011;3527;52.376;8.990;2022-11-20T10:07:24;17.73;;;10.93;;
6973;SDS011;3527;52.376;8.990;2022-11-20T10:10:21;16.77;;;11.03;;
6973;SDS011;3527;52.376;8.990;2022-11-20T10:25:23;22.27;;;13.23;;
6973;SDS011;3527;52.376;8.990;2022-11-20T10:28:39;21.87;;;12.87;;
6973;SDS011;3527;52.376;8.990;2022-11-20T10:31:56;20.17;;;13.20;;
6973;SDS011;3527;52.376;8.990;2022-11-20T10:35:07;22.90;;;14.00;;
6973;SDS011;3527;52.376;8.990;2022-11-20T10:38:31;24.37;;;14.10;;
6973;SDS011;3527;52.376;8.990;2022-11-20T10:41:41;22.27;;;13.47;;
6973;SDS011;3527;52.376;8.990;2022-11-20T10:44:29;22.80;;;13.43;;
6973;SDS011;3527;52.376;8.990;2022-11-20T10:47:39;20.60;;;13.80;;
6973;SDS011;3527;52.376;8.990;2022-11-20T10:50:26;27.23;;;14.27;;
6973;SDS011;3527;52.376;8.990;2022-11-20T10:53:22;25.27;;;14.30;;
6973;SDS011;3527;52.376;8.990;2022-11-20T10:56:45;24.17;;;14.20;;
6973;SDS011;3527;52.376;8.990;2022-11-20T11:02:39;27.07;;;15.63;;
6973;SDS011;3527;52.376;8.990;2022-11-20T11:05:32;28.50;;;15.70;;
6973;SDS011;3527;52.376;8.990;2022-11-20T11:08:28;27.50;;;16.47;;
6973;SDS011;3527;52.376;8.990;2022-11-20T11:11:28;26.03;;;15.37;;
6973;SDS011;3527;52.376;8.990;2022-11-20T11:14:18;25.13;;;14.40;;
6973;SDS011;3527;52.376;8.990;2022-11-20T11:17:17;27.37;;;16.00;;
6973;SDS011;3527;52.376;8.990;2022-11-20T11:23:10;26.90;;;15.87;;
6973;SDS011;3527;52.376;8.990;2022-11-20T11:26:19;31.63;;;17.63;;
6973;SDS011;3527;52.376;8.990;2022-11-20T11:29:15;30.83;;;17.37;;
6973;SDS011;3527;52.376;8.990;2022-11-20T11:32:20;27.97;;;17.10;;
6973;SDS011;3527;52.376;8.990;2022-11-20T11:35:22;29.87;;;17.97;;
6973;SDS011;3527;52.376;8.990;2022-11-20T11:38:13;28.33;;;16.67;;
6973;SDS011;3527;52.376;8.990;2022-11-20T11:41:04;30.07;;;17.23;;
6973;SDS011;3527;52.376;8.990;2022-11-20T11:43:54;26.37;;;16.77;;
6973;SDS011;3527;52.376;8.990;2022-11-20T11:47:03;25.27;;;15.70;;
6973;SDS011;3527;52.376;8.990;2022-11-20T11:56:10;29.23;;;16.90;;
6973;SDS011;3527;52.376;8.990;2022-11-20T11:59:04;29.27;;;16.63;;
6973;SDS011;3527;52.376;8.990;2022-11-20T12:02:01;29.63;;;16.47;;
6973;SDS011;3527;52.376;8.990;2022-11-20T12:05:19;30.97;;;18.33;;
6973;SDS011;3527;52.376;8.990;2022-11-20T12:12:04;29.53;;;17.10;;
6973;SDS011;3527;52.376;8.990;2022-11-20T12:14:52;29.80;;;17.90;;
6973;SDS011;3527;52.376;8.990;2022-11-20T12:17:42;27.37;;;16.13;;
6973;SDS011;3527;52.376;8.990;2022-11-20T12:20:32;28.33;;;17.07;;
6973;SDS011;3527;52.376;8.990;2022-11-20T12:29:41;28.47;;;17.13;;
6973;SDS011;3527;52.376;8.990;2022-11-20T12:32:54;30.40;;;17.07;;
6973;SDS011;3527;52.376;8.990;2022-11-20T12:48:24;24.30;;;15.30;;
6973;SDS011;3527;52.376;8.990;2022-11-20T12:51:37;24.03;;;15.57;;
6973;SDS011;3527;52.376;8.990;2022-11-20T12:57:42;20.37;;;12.67;;
6973;SDS011;3527;52.376;8.990;2022-11-20T13:00:36;19.43;;;13.13;;
6973;SDS011;3527;52.376;8.990;2022-11-20T13:03:36;19.60;;;12.83;;
6973;SDS011;3527;52.376;8.990;2022-11-20T13:06:24;22.57;;;12.60;;
6973;SDS011;3527;52.376;8.990;2022-11-20T13:09:13;20.20;;;11.87;;
6973;SDS011;3527;52.376;8.990;2022-11-20T13:12:05;21.10;;;12.77;;
6973;SDS011;3527;52.376;8.990;2022-11-20T13:18:12;20.13;;;12.43;;
6973;SDS011;3527;52.376;8.990;2022-11-20T13:21:00;20.10;;;13.30;;
6973;SDS011;3527;52.376;8.990;2022-11-20T13:23:47;18.90;;;12.83;;
6973;SDS011;3527;52.376;8.990;2022-11-20T13:26:34;18.90;;;12.10;;
6973;SDS011;3527;52.376;8.990;2022-11-20T13:29:21;18.47;;;12.30;;
6973;SDS011;3527;52.376;8.990;2022-11-20T13:32:15;17.30;;;11.90;;
6973;SDS011;3527;52.376;8.990;2022-11-20T13:35:08;17.17;;;12.37;;
6973;SDS011;3527;52.376;8.990;2022-11-20T13:40:52;19.37;;;12.20;;
6973;SDS011;3527;52.376;8.990;2022-11-20T13:43:44;19.20;;;12.27;;
6973;SDS011;3527;52.376;8.990;2022-11-20T13:46:41;19.43;;;12.20;;
6973;SDS011;3527;52.376;8.990;2022-11-20T13:49:37;19.70;;;13.23;;
6973;SDS011;3527;52.376;8.990;2022-11-20T13:55:47;21.63;;;13.50;;
6973;SDS011;3527;52.376;8.990;2022-11-20T13:58:48;20.23;;;12.20;;
6973;SDS011;3527;52.376;8.990;2022-11-20T14:01:37;17.50;;;11.97;;
6973;SDS011;3527;52.376;8.990;2022-11-20T14:04:33;17.87;;;12.73;;
6973;SDS011;3527;52.376;8.990;2022-11-20T14:07:24;19.73;;;13.30;;
6973;SDS011;3527;52.376;8.990;2022-11-20T14:10:25;18.57;;;11.90;;
6973;SDS011;3527;52.376;8.990;2022-11-20T14:13:18;17.37;;;11.57;;
6973;SDS011;3527;52.376;8.990;2022-11-20T14:16:08;17.60;;;12.07;;
6973;SDS011;3527;52.376;8.990;2022-11-20T14:18:56;19.03;;;12.57;;
6973;SDS011;3527;52.376;8.990;2022-11-20T14:21:44;19.67;;;13.10;;
6973;SDS011;3527;52.376;8.990;2022-11-20T14:24:35;21.50;;;12.70;;
6973;SDS011;3527;52.376;8.990;2022-11-20T14:27:22;19.50;;;12.63;;
6973;SDS011;3527;52.376;8.990;2022-11-20T14:30:14;18.60;;;12.37;;
6973;SDS011;3527;52.376;8.990;2022-11-20T14:33:03;19.30;;;13.40;;
6973;SDS011;3527;52.376;8.990;2022-11-20T14:35:51;20.50;;;13.00;;
6973;SDS011;3527;52.376;8.990;2022-11-20T14:38:41;19.33;;;13.10;;
6973;SDS011;3527;52.376;8.990;2022-11-20T14:41:29;20.00;;;12.57;;
6973;SDS011;3527;52.376;8.990;2022-11-20T14:44:23;19.93;;;13.37;;
6973;SDS011;3527;52.376;8.990;2022-11-20T14:47:26;19.00;;;12.53;;
6973;SDS011;3527;52.376;8.990;2022-11-20T14:50:23;20.30;;;12.73;;
6973;SDS011;3527;52.376;8.990;2022-11-20T14:53:13;21.73;;;13.30;;
6973;SDS011;3527;52.376;8.990;2022-11-20T14:56:09;20.00;;;13.50;;
6973;SDS011;3527;52.376;8.990;2022-11-20T14:58:59;20.03;;;12.53;;
6973;SDS011;3527;52.376;8.990;2022-11-20T15:01:54;21.27;;;13.33;;
6973;SDS011;3527;52.376;8.990;2022-11-20T15:04:46;20.87;;;13.40;;
6973;SDS011;3527;52.376;8.990;2022-11-20T15:07:34;20.63;;;13.40;;
6973;SDS011;3527;52.376;8.990;2022-11-20T15:10:24;26.67;;;15.40;;
6973;SDS011;3527;52.376;8.990;2022-11-20T15:13:13;23.60;;;14.20;;
6973;SDS011;3527;52.376;8.990;2022-11-20T15:16:22;22.03;;;14.20;;
6973;SDS011;3527;52.376;8.990;2022-11-20T15:19:14;22.10;;;14.03;;
6973;SDS011;3527;52.376;8.990;2022-11-20T15:22:08;23.17;;;13.90;;
6973;SDS011;3527;52.376;8.990;2022-11-20T15:24:59;23.83;;;13.43;;
6973;SDS011;3527;52.376;8.990;2022-11-20T15:27:47;24.43;;;14.77;;
6973;SDS011;3527;52.376;8.990;2022-11-20T15:30:37;23.27;;;14.33;;
6973;SDS011;3527;52.376;8.990;2022-11-20T15:33:24;25.37;;;15.30;;
6973;SDS011;3527;52.376;8.990;2022-11-20T15:36:11;25.30;;;15.07;;
6973;SDS011;3527;52.376;8.990;2022-11-20T15:38:59;24.40;;;15.67;;
6973;SDS011;3527;52.376;8.990;2022-11-20T15:41:46;26.30;;;17.33;;
6973;SDS011;3527;52.376;8.990;2022-11-20T15:44:33;28.00;;;16.13;;
6973;SDS011;3527;52.376;8.990;2022-11-20T15:47:21;24.23;;;16.07;;
6973;SDS011;3527;52.376;8.990;2022-11-20T15:50:14;26.77;;;16.73;;
6973;SDS011;3527;52.376;8.990;2022-11-20T15:53:04;27.43;;;16.53;;
6973;SDS011;3527;52.376;8.990;2022-11-20T15:55:51;27.57;;;17.00;;
6973;SDS011;3527;52.376;8.990;2022-11-20T15:58:38;28.50;;;17.07;;
6973;SDS011;3527;52.376;8.990;2022-11-20T16:01:26;28.33;;;16.67;;
6973;SDS011;3527;52.376;8.990;2022-11-20T16:04:14;25.77;;;16.47;;
6973;SDS011;3527;52.376;8.990;2022-11-20T16:07:03;27.80;;;16.97;;
6973;SDS011;3527;52.376;8.990;2022-11-20T16:09:50;27.80;;;16.50;;
6973;SDS011;3527;52.376;8.990;2022-11-20T16:12:37;30.50;;;17.07;;
6973;SDS011;3527;52.376;8.990;2022-11-20T16:15:43;28.97;;;17.03;;
6973;SDS011;3527;52.376;8.990;2022-11-20T16:18:36;27.10;;;16.77;;
6973;SDS011;3527;52.376;8.990;2022-11-20T16:21:23;29.20;;;16.83;;
6973;SDS011;3527;52.376;8.990;2022-11-20T16:24:19;30.27;;;18.37;;
6973;SDS011;3527;52.376;8.990;2022-11-20T16:27:07;31.20;;;18.87;;
6973;SDS011;3527;52.376;8.990;2022-11-20T16:29:54;36.07;;;20.67;;
6973;SDS011;3527;52.376;8.990;2022-11-20T16:32:41;30.80;;;19.17;;
6973;SDS011;3527;52.376;8.990;2022-11-20T16:35:29;32.23;;;19.47;;
6973;SDS011;3527;52.376;8.990;2022-11-20T16:38:17;32.30;;;19.57;;
6973;SDS011;3527;52.376;8.990;2022-11-20T16:41:04;32.63;;;19.73;;
6973;SDS011;3527;52.376;8.990;2022-11-20T16:43:53;30.60;;;19.23;;
6973;SDS011;3527;52.376;8.990;2022-11-20T16:46:43;31.87;;;19.90;;
6973;SDS011;3527;52.376;8.990;2022-11-20T16:49:30;32.10;;;20.67;;
6973;SDS011;3527;52.376;8.990;2022-11-20T16:52:18;34.73;;;20.70;;
6973;SDS011;3527;52.376;8.990;2022-11-20T16:55:05;36.57;;;22.53;;
6973;SDS011;3527;52.376;8.990;2022-11-20T16:57:53;32.47;;;20.80;;
6973;SDS011;3527;52.376;8.990;2022-11-20T17:00:40;36.00;;;22.73;;
6973;SDS011;3527;52.376;8.990;2022-11-20T17:03:34;37.37;;;22.10;;
6973;SDS011;3527;52.376;8.990;2022-11-20T17:06:22;34.20;;;20.60;;
6973;SDS011;3527;52.376;8.990;2022-11-20T17:09:11;32.53;;;20.93;;
6973;SDS011;3527;52.376;8.990;2022-11-20T17:11:58;29.07;;;18.03;;
6973;SDS011;3527;52.376;8.990;2022-11-20T17:14:46;29.83;;;17.97;;
6973;SDS011;3527;52.376;8.990;2022-11-20T17:17:33;27.40;;;17.77;;
6973;SDS011;3527;52.376;8.990;2022-11-20T17:20:20;30.70;;;17.13;;
6973;SDS011;3527;52.376;8.990;2022-11-20T17:23:07;29.10;;;17.37;;
6973;SDS011;3527;52.376;8.990;2022-11-20T17:28:57;28.70;;;16.97;;
6973;SDS011;3527;52.376;8.990;2022-11-20T17:31:49;24.33;;;15.80;;
6973;SDS011;3527;52.376;8.990;2022-11-20T17:34:36;26.20;;;15.63;;
6973;SDS011;3527;52.376;8.990;2022-11-20T17:37:23;27.07;;;16.80;;
6973;SDS011;3527;52.376;8.990;2022-11-20T17:40:10;28.30;;;17.07;;
6973;SDS011;3527;52.376;8.990;2022-11-20T17:42:57;27.10;;;16.70;;
6973;SDS011;3527;52.376;8.990;2022-11-20T17:45:44;26.03;;;17.27;;
6973;SDS011;3527;52.376;8.990;2022-11-20T17:48:32;24.77;;;15.73;;
6973;SDS011;3527;52.376;8.990;2022-11-20T17:51:20;25.80;;;16.03;;
6973;SDS011;3527;52.376;8.990;2022-11-20T17:54:09;24.80;;;16.33;;
6973;SDS011;3527;52.376;8.990;2022-11-20T17:56:59;25.10;;;15.70;;
6973;SDS011;3527;52.376;8.990;2022-11-20T18:00:04;26.17;;;16.03;;
6973;SDS011;3527;52.376;8.990;2022-11-20T18:02:52;24.10;;;14.77;;
6973;SDS011;3527;52.376;8.990;2022-11-20T18:05:39;26.90;;;16.47;;
6973;SDS011;3527;52.376;8.990;2022-11-20T18:08:26;25.30;;;15.87;;
6973;SDS011;3527;52.376;8.990;2022-11-20T18:11:14;28.00;;;16.83;;
6973;SDS011;3527;52.376;8.990;2022-11-20T18:14:07;25.03;;;15.97;;
6973;SDS011;3527;52.376;8.990;2022-11-20T18:17:16;24.53;;;16.10;;
6973;SDS011;3527;52.376;8.990;2022-11-20T18:20:03;26.00;;;14.80;;
6973;SDS011;3527;52.376;8.990;2022-11-20T18:23:11;25.50;;;15.33;;
6973;SDS011;3527;52.376;8.990;2022-11-20T18:26:01;24.43;;;15.63;;
6973;SDS011;3527;52.376;8.990;2022-11-20T18:28:48;25.63;;;16.40;;
6973;SDS011;3527;52.376;8.990;2022-11-20T18:31:35;25.20;;;15.50;;